Terminal Aerodrome Forecast
Issued by NWS

Home | Current Version | Previous Version | Text Only | Print | Product List | Glossary On
Versions: 1 2 3 4 5 6 7 8 9 10 11 12 13 14 15
000
FTUS46 KLOX 311100 CCA
TAFOXR
TAF COR
KOXR 311153Z 3112/0112 VRB03KT P6SM BKN006
     FM311500 25006KT P6SM FEW008
     FM311800 27012KT P6SM SKC
     FM010500 VRB03KT P6SM SKC=

USA.gov is the U.S. government's official web portal to all federal, state and local government web resources and services.